createdAt,value
2019-01-09T00:01:09.110Z,92.30
2019-01-09T00:03:38.025Z,92.05
2019-01-09T00:06:07.002Z,91.99
2019-01-09T00:08:36.171Z,92.23
2019-01-09T00:11:05.136Z,92.80
2019-01-09T00:13:34.119Z,92.40
2019-01-09T00:16:03.126Z,93.03
2019-01-09T00:18:32.080Z,92.38
2019-01-09T00:21:01.085Z,92.43
2019-01-09T00:23:30.067Z,92.24
2019-01-09T00:25:59.143Z,91.54
2019-01-09T00:28:28.116Z,91.62
2019-01-09T00:30:57.081Z,92.06
2019-01-09T00:33:26.006Z,91.98
2019-01-09T00:35:55.082Z,92.37
2019-01-09T00:38:24.102Z,92.42
2019-01-09T00:40:53.074Z,92.28
2019-01-09T00:43:22.026Z,92.65
2019-01-09T00:45:50.994Z,92.79
2019-01-09T00:48:19.961Z,92.97
2019-01-09T00:50:48.927Z,92.83
2019-01-09T00:53:17.890Z,93.17
2019-01-09T00:55:46.952Z,93.05
2019-01-09T00:58:16.266Z,93.11
2019-01-09T01:00:45.279Z,93.01
2019-01-09T01:03:48.383Z,92.82
2019-01-09T01:06:51.320Z,91.96
2019-01-09T01:10:00.912Z,92.54
2019-01-09T01:13:13.071Z,93.06
2019-01-09T01:16:34.390Z,93.01
2019-01-09T01:19:46.579Z,93.28
2019-01-09T01:22:42.028Z,92.93
2019-01-09T01:25:29.462Z,93.04
2019-01-09T01:28:38.309Z,92.70
2019-01-09T01:31:26.743Z,92.91
2019-01-09T01:34:48.962Z,92.68
2019-01-09T01:38:02.064Z,92.69
2019-01-09T01:41:00.481Z,91.90
2019-01-09T01:44:25.791Z,91.74
2019-01-09T01:47:45.152Z,92.30
2019-01-09T01:50:31.085Z,91.93
2019-01-09T01:53:59.469Z,91.74
2019-01-09T01:57:09.883Z,91.55
2019-01-09T01:59:54.317Z,91.74
2019-01-09T02:03:06.706Z,91.95
2019-01-09T02:05:43.456Z,92.63
2019-01-09T02:08:38.422Z,92.76
2019-01-09T02:11:59.936Z,92.84
2019-01-09T02:15:00.713Z,91.92
2019-01-09T02:17:51.783Z,91.22
2019-01-09T02:20:54.740Z,90.75
2019-01-09T02:23:41.440Z,89.22
2019-01-09T02:26:31.190Z,88.80
2019-01-09T02:29:41.447Z,89.21
2019-01-09T02:32:29.102Z,89.93
2019-01-09T02:34:58.122Z,90.04
2019-01-09T02:37:27.295Z,89.10
2019-01-09T02:39:56.255Z,90.01
2019-01-09T02:42:25.337Z,90.39
2019-01-09T02:44:54.366Z,90.82
2019-01-09T02:47:23.429Z,91.03
2019-01-09T02:49:52.464Z,91.33
2019-01-09T02:52:21.527Z,91.24
2019-01-09T02:54:50.552Z,91.90
2019-01-09T02:57:19.601Z,92.10
2019-01-09T02:59:48.527Z,92.72
2019-01-09T03:02:17.510Z,93.08
2019-01-09T03:04:46.490Z,94.08
2019-01-09T03:07:15.313Z,94.41
2019-01-09T03:09:44.223Z,94.68
2019-01-09T03:12:13.197Z,94.94
2019-01-09T03:14:42.279Z,95.16
2019-01-09T03:17:11.263Z,94.80
2019-01-09T03:19:40.149Z,94.80
2019-01-09T03:22:09.166Z,94.79
2019-01-09T03:24:38.135Z,94.02
2019-01-09T03:27:07.043Z,93.87
2019-01-09T03:29:36.011Z,93.83
2019-01-09T03:32:05.005Z,93.60
2019-01-09T03:34:33.990Z,93.04
2019-01-09T03:37:02.977Z,92.65
2019-01-09T03:39:31.969Z,91.75
2019-01-09T03:42:00.961Z,91.13
2019-01-09T03:44:29.959Z,90.79
2019-01-09T03:46:58.944Z,89.82
2019-01-09T03:49:27.766Z,90.20
2019-01-09T03:51:56.654Z,90.18
2019-01-09T03:54:25.557Z,87.92
2019-01-09T03:56:54.523Z,87.84
2019-01-09T03:59:23.439Z,86.43
2019-01-09T04:01:52.342Z,86.32
2019-01-09T04:04:21.251Z,86.53
2019-01-09T04:06:50.140Z,87.21
2019-01-09T04:09:19.133Z,87.59
2019-01-09T04:11:48.118Z,87.44
2019-01-09T04:14:17.086Z,87.29
2019-01-09T04:16:45.966Z,87.28
2019-01-09T04:19:14.866Z,87.70
2019-01-09T04:21:43.829Z,87.68
2019-01-09T04:24:12.737Z,87.33
2019-01-09T04:26:41.579Z,87.28
2019-01-09T04:29:10.406Z,86.95
2019-01-09T04:31:39.238Z,86.00
2019-01-09T04:34:08.173Z,86.05
2019-01-09T04:36:37.059Z,85.97
2019-01-09T04:39:06.977Z,85.66
2019-01-09T04:41:35.866Z,85.67
2019-01-09T04:44:04.855Z,85.70
2019-01-09T04:46:33.743Z,85.36
2019-01-09T04:49:02.576Z,84.88
2019-01-09T04:51:31.548Z,82.36
2019-01-09T04:54:00.401Z,82.45
2019-01-09T04:56:29.372Z,81.72
2019-01-09T04:58:58.284Z,80.42
2019-01-09T05:01:27.172Z,80.38
2019-01-09T05:03:56.162Z,80.60
2019-01-09T05:06:25.054Z,79.40
2019-01-09T05:08:53.957Z,79.75
2019-01-09T05:11:22.855Z,79.62
2019-01-09T05:13:51.806Z,79.48
2019-01-09T05:16:20.760Z,79.07
2019-01-09T05:18:49.573Z,79.09
2019-01-09T05:21:18.541Z,78.04
2019-01-09T05:23:47.433Z,77.62
2019-01-09T05:26:16.279Z,77.28
2019-01-09T05:28:45.170Z,77.47
2019-01-09T05:31:13.997Z,78.83
2019-01-09T05:33:42.885Z,80.31
2019-01-09T05:36:11.876Z,81.83
2019-01-09T05:38:40.789Z,83.93
2019-01-09T05:41:09.765Z,84.82
2019-01-09T05:43:38.591Z,84.61
2019-01-09T05:46:07.519Z,83.79
2019-01-09T05:48:36.496Z,83.74
2019-01-09T05:51:05.405Z,82.89
2019-01-09T05:53:34.413Z,81.24
2019-01-09T05:56:03.400Z,81.42
2019-01-09T05:58:32.217Z,81.55
2019-01-09T06:01:01.175Z,81.57
2019-01-09T06:03:30.143Z,82.72
2019-01-09T06:05:59.114Z,83.54
2019-01-09T06:08:27.923Z,84.37
2019-01-09T06:10:56.837Z,84.48
2019-01-09T06:13:25.805Z,85.19
2019-01-09T06:15:54.732Z,84.61
2019-01-09T06:18:23.620Z,84.88
2019-01-09T06:20:52.466Z,85.89
2019-01-09T06:23:21.344Z,85.76
2019-01-09T06:25:50.172Z,85.67
2019-01-09T06:28:19.074Z,85.86
2019-01-09T06:30:47.963Z,85.56
2019-01-09T06:33:16.869Z,85.69
2019-01-09T06:35:45.847Z,85.68
2019-01-09T06:38:14.856Z,86.32
2019-01-09T06:40:43.799Z,86.91
2019-01-09T06:43:12.777Z,85.69
2019-01-09T06:45:41.585Z,85.54
2019-01-09T06:48:10.701Z,85.68
2019-01-09T06:50:39.672Z,85.01
2019-01-09T06:53:08.578Z,85.26
2019-01-09T06:55:37.511Z,85.52
2019-01-09T06:58:06.288Z,85.37
2019-01-09T07:00:35.246Z,85.31
2019-01-09T07:03:04.064Z,85.01
2019-01-09T07:05:32.945Z,84.83
2019-01-09T07:08:01.784Z,85.08
2019-01-09T07:10:30.670Z,84.95
2019-01-09T07:12:59.587Z,84.99
2019-01-09T07:15:28.479Z,84.90
2019-01-09T07:17:57.289Z,84.89
2019-01-09T07:20:26.267Z,84.99
2019-01-09T07:22:55.258Z,84.98
2019-01-09T07:25:24.083Z,84.73
2019-01-09T07:27:53.054Z,84.80
2019-01-09T07:30:22.031Z,84.76
2019-01-09T07:32:50.937Z,84.67
2019-01-09T07:35:19.833Z,84.53
2019-01-09T07:37:48.821Z,84.32
2019-01-09T07:40:18.897Z,84.14
2019-01-09T07:42:47.981Z,83.17
2019-01-09T07:45:16.863Z,83.10
2019-01-09T07:47:45.801Z,82.88
2019-01-09T07:50:14.775Z,83.19
2019-01-09T07:52:43.599Z,82.66
2019-01-09T07:55:12.554Z,82.56
2019-01-09T07:57:41.457Z,82.94
2019-01-09T08:00:11.673Z,82.42
2019-01-09T08:02:40.636Z,83.28
2019-01-09T08:05:09.580Z,83.23
2019-01-09T08:07:38.465Z,83.64
2019-01-09T08:10:09.184Z,84.52
2019-01-09T08:12:38.148Z,84.78
2019-01-09T08:15:07.883Z,86.65
2019-01-09T08:17:36.779Z,86.34
2019-01-09T08:20:06.390Z,87.28
2019-01-09T08:22:35.345Z,87.16
2019-01-09T08:25:04.357Z,87.46
2019-01-09T08:27:33.310Z,87.81
2019-01-09T08:30:02.135Z,88.30
2019-01-09T08:32:31.128Z,88.08
2019-01-09T08:34:59.966Z,89.04
2019-01-09T08:37:28.771Z,90.05
2019-01-09T08:39:57.745Z,90.19
2019-01-09T08:42:26.738Z,90.90
2019-01-09T08:44:55.632Z,90.54
2019-01-09T08:47:24.456Z,90.57
2019-01-09T08:49:53.353Z,90.63
2019-01-09T08:52:22.451Z,90.89
2019-01-09T08:54:51.361Z,90.68
2019-01-09T08:57:20.329Z,90.85
2019-01-09T08:59:49.227Z,90.23
2019-01-09T09:02:18.296Z,90.43
2019-01-09T09:04:47.305Z,90.20
2019-01-09T09:07:17.972Z,89.84
2019-01-09T09:09:46.938Z,90.10
2019-01-09T09:12:15.823Z,90.01
2019-01-09T09:14:44.720Z,89.29
2019-01-09T09:17:13.606Z,90.06
2019-01-09T09:19:42.516Z,89.53
2019-01-09T09:22:11.468Z,88.91
2019-01-09T09:24:40.271Z,89.01
2019-01-09T09:27:09.236Z,88.87
2019-01-09T09:29:38.193Z,88.95
2019-01-09T09:32:07.166Z,88.98
2019-01-09T09:34:35.983Z,89.34
2019-01-09T09:37:04.969Z,89.00
2019-01-09T09:39:33.856Z,88.68
2019-01-09T09:42:02.760Z,89.29
2019-01-09T09:44:31.639Z,88.90
2019-01-09T09:47:00.539Z,88.82
2019-01-09T09:49:29.432Z,88.50
2019-01-09T09:51:58.266Z,88.03
2019-01-09T09:54:27.143Z,88.14
2019-01-09T09:56:56.056Z,87.13
2019-01-09T09:59:24.858Z,87.71
2019-01-09T10:01:53.981Z,88.00
2019-01-09T10:04:22.821Z,88.57
2019-01-09T10:06:51.733Z,88.29
2019-01-09T10:09:20.616Z,88.77
2019-01-09T10:11:49.510Z,88.48
2019-01-09T10:14:18.472Z,88.78
2019-01-09T10:16:47.429Z,89.25
2019-01-09T10:19:16.305Z,88.43
2019-01-09T10:21:45.204Z,89.63
2019-01-09T10:24:14.098Z,89.55
2019-01-09T10:26:42.977Z,88.64
2019-01-09T10:29:11.865Z,88.72
2019-01-09T10:31:40.765Z,88.52
2019-01-09T10:34:09.648Z,88.77
2019-01-09T10:36:38.618Z,88.14
2019-01-09T10:39:09.658Z,88.17
2019-01-09T10:41:38.481Z,87.98
2019-01-09T10:44:07.454Z,87.83
2019-01-09T10:46:36.416Z,88.37
2019-01-09T10:49:05.404Z,88.12
2019-01-09T10:51:34.375Z,88.16
2019-01-09T10:54:03.349Z,87.88
2019-01-09T10:56:32.310Z,86.79
2019-01-09T10:59:01.270Z,86.92
2019-01-09T11:01:30.209Z,87.07
2019-01-09T11:03:59.201Z,87.04
2019-01-09T11:06:28.145Z,87.61
2019-01-09T11:08:56.966Z,88.33
2019-01-09T11:11:25.770Z,88.01
2019-01-09T11:13:54.708Z,89.07
2019-01-09T11:16:23.487Z,89.10
2019-01-09T11:18:52.419Z,89.03
2019-01-09T11:21:21.329Z,89.13
2019-01-09T11:23:50.421Z,89.81
2019-01-09T11:26:19.523Z,90.21
2019-01-09T11:28:48.552Z,89.59
2019-01-09T11:31:17.699Z,89.39
2019-01-09T11:33:46.688Z,89.87
2019-01-09T11:36:15.534Z,89.42
2019-01-09T11:38:44.565Z,89.94
2019-01-09T11:41:13.638Z,90.33
2019-01-09T11:43:42.551Z,90.51
2019-01-09T11:46:11.605Z,90.70
2019-01-09T11:48:40.498Z,90.85
2019-01-09T11:51:09.485Z,90.99
2019-01-09T11:53:38.440Z,91.13
2019-01-09T11:56:07.408Z,91.44
2019-01-09T11:58:36.299Z,91.28
2019-01-09T12:01:05.803Z,91.08
2019-01-09T12:03:34.878Z,91.47
2019-01-09T12:06:03.867Z,91.55
2019-01-09T12:08:32.883Z,91.43
2019-01-09T12:11:02.126Z,91.80
2019-01-09T12:13:31.541Z,91.59
2019-01-09T12:16:08.008Z,91.31
2019-01-09T12:18:31.341Z,90.85
2019-01-09T12:21:00.366Z,90.88
2019-01-09T12:23:29.488Z,90.86
2019-01-09T12:25:58.572Z,90.95
2019-01-09T12:28:27.589Z,90.88
2019-01-09T12:30:56.696Z,90.77
2019-01-09T12:33:25.801Z,91.01
2019-01-09T12:35:54.860Z,91.17
2019-01-09T12:38:23.909Z,91.56
2019-01-09T12:40:52.865Z,91.72
2019-01-09T12:43:21.844Z,91.66
2019-01-09T12:45:50.742Z,90.97
2019-01-09T12:48:19.633Z,91.36
2019-01-09T12:50:48.624Z,91.34
2019-01-09T12:53:17.571Z,91.84
2019-01-09T12:55:46.471Z,92.22
2019-01-09T12:58:15.578Z,92.48
2019-01-09T13:00:44.387Z,92.10
2019-01-09T13:03:14.207Z,91.83
2019-01-09T13:05:43.194Z,92.04
2019-01-09T13:08:12.097Z,91.82
2019-01-09T13:10:40.997Z,92.14
2019-01-09T13:13:09.810Z,91.80
2019-01-09T13:15:38.818Z,92.09
2019-01-09T13:18:07.705Z,92.12
2019-01-09T13:20:36.663Z,92.20
2019-01-09T13:23:05.732Z,91.84
2019-01-09T13:25:34.724Z,92.21
2019-01-09T13:28:03.613Z,92.12
2019-01-09T13:30:32.602Z,91.63
2019-01-09T13:33:01.516Z,92.13
2019-01-09T13:35:30.601Z,92.09
2019-01-09T13:37:59.511Z,92.09
2019-01-09T13:40:28.494Z,92.00
2019-01-09T13:42:57.381Z,91.48
2019-01-09T13:45:26.369Z,91.59
2019-01-09T13:47:55.357Z,91.47
2019-01-09T13:50:24.333Z,91.64
2019-01-09T13:52:53.290Z,90.57
2019-01-09T13:55:22.329Z,90.48
2019-01-09T13:57:51.202Z,90.54
2019-01-09T14:00:21.784Z,90.58
2019-01-09T14:02:50.766Z,88.93
2019-01-09T14:05:19.732Z,88.98
2019-01-09T14:07:48.719Z,89.35
2019-01-09T14:10:19.990Z,88.68
2019-01-09T14:12:48.963Z,88.73
2019-01-09T14:15:19.485Z,88.33
2019-01-09T14:17:48.836Z,88.78
2019-01-09T14:20:18.013Z,88.47
2019-01-09T14:22:47.013Z,88.69
2019-01-09T14:25:16.182Z,88.89
2019-01-09T14:27:45.508Z,88.72
2019-01-09T14:30:20.399Z,88.48
2019-01-09T14:32:49.394Z,87.94
2019-01-09T14:35:18.395Z,87.79
2019-01-09T14:37:47.379Z,88.12
2019-01-09T14:40:16.432Z,88.04
2019-01-09T14:42:45.401Z,88.24
2019-01-09T14:45:14.749Z,88.16
2019-01-09T14:47:43.704Z,88.50
2019-01-09T14:50:16.258Z,88.60
2019-01-09T14:52:45.165Z,88.36
2019-01-09T14:55:14.604Z,88.45
2019-01-09T14:57:44.091Z,89.12
2019-01-09T15:00:21.692Z,89.22
2019-01-09T15:02:50.669Z,88.86
2019-01-09T15:05:19.690Z,89.35
2019-01-09T15:07:48.615Z,88.86
2019-01-09T15:10:19.887Z,90.00
2019-01-09T15:12:49.089Z,89.97
2019-01-09T15:15:18.232Z,90.01
2019-01-09T15:17:47.308Z,90.92
2019-01-09T15:20:17.473Z,91.15
2019-01-09T15:22:46.368Z,91.29
2019-01-09T15:25:15.554Z,91.98
2019-01-09T15:27:44.531Z,91.57
2019-01-09T15:30:22.291Z,91.90
2019-01-09T15:32:51.294Z,92.17
2019-01-09T15:35:20.323Z,93.04
2019-01-09T15:37:49.302Z,93.50
2019-01-09T15:40:20.277Z,93.49
2019-01-09T15:42:49.666Z,94.27
2019-01-09T15:45:18.630Z,94.50
2019-01-09T15:47:47.729Z,95.23
2019-01-09T15:50:18.069Z,95.12
2019-01-09T15:52:47.071Z,95.31
2019-01-09T15:55:16.380Z,95.59
2019-01-09T15:57:45.533Z,96.00
2019-01-09T16:00:26.057Z,96.27
2019-01-09T16:02:55.556Z,96.22
2019-01-09T16:05:24.656Z,96.50
2019-01-09T16:07:53.881Z,96.63
2019-01-09T16:10:22.856Z,96.72
2019-01-09T16:12:51.833Z,96.70
2019-01-09T16:15:20.836Z,96.77
2019-01-09T16:17:49.903Z,96.83
2019-01-09T16:20:19.377Z,96.80
2019-01-09T16:22:48.342Z,96.65
2019-01-09T16:25:17.642Z,96.60
2019-01-09T16:27:46.529Z,96.62
2019-01-09T16:30:45.461Z,96.25
2019-01-09T16:33:14.307Z,96.44
2019-01-09T16:35:43.323Z,96.86
2019-01-09T16:38:12.281Z,97.31
2019-01-09T16:40:41.283Z,97.43
2019-01-09T16:43:10.125Z,97.75
2019-01-09T16:45:39.437Z,97.76
2019-01-09T16:48:08.343Z,98.07
2019-01-09T16:50:37.343Z,98.05
2019-01-09T16:53:06.322Z,98.10
2019-01-09T16:55:35.310Z,98.44
2019-01-09T16:58:04.458Z,99.12
2019-01-09T17:00:33.473Z,99.32
2019-01-09T17:03:02.365Z,99.37
2019-01-09T17:05:31.376Z,99.57
2019-01-09T17:08:00.349Z,99.73
2019-01-09T17:10:32.543Z,99.98
2019-01-09T17:13:00.108Z,100.00
2019-01-09T17:15:29.050Z,100.00
2019-01-09T17:17:58.077Z,100.00
2019-01-09T17:20:27.103Z,100.00
2019-01-09T17:22:56.455Z,100.00
2019-01-09T17:25:25.450Z,100.00
2019-01-09T17:27:54.335Z,100.00
2019-01-09T17:30:25.069Z,100.00
2019-01-09T17:32:54.107Z,100.00
2019-01-09T17:35:23.259Z,100.00
2019-01-09T17:37:52.299Z,99.96
2019-01-09T17:40:21.641Z,99.90
2019-01-09T17:42:51.261Z,99.97
2019-01-09T17:45:20.400Z,100.00
2019-01-09T17:47:49.364Z,99.92
2019-01-09T17:50:24.561Z,99.94
2019-01-09T17:52:53.902Z,100.00
2019-01-09T17:55:22.872Z,99.99
2019-01-09T17:57:51.764Z,99.89
2019-01-09T18:00:23.218Z,99.70
2019-01-09T18:02:52.167Z,99.72
2019-01-09T18:05:21.398Z,99.76
2019-01-09T18:07:52.118Z,99.76
2019-01-09T18:10:22.005Z,99.64
2019-01-09T18:12:50.935Z,99.67
2019-01-09T18:15:21.486Z,99.67
2019-01-09T18:17:50.552Z,99.67
2019-01-09T18:20:19.847Z,99.77
2019-01-09T18:22:48.824Z,99.84
2019-01-09T18:25:19.692Z,99.86
2019-01-09T18:27:48.709Z,99.79
2019-01-09T18:30:20.981Z,99.72
2019-01-09T18:33:13.742Z,99.71
2019-01-09T18:36:20.719Z,99.73
2019-01-09T18:39:21.707Z,99.72
2019-01-09T18:42:36.923Z,99.74
2019-01-09T18:45:32.702Z,99.65
2019-01-09T18:48:27.547Z,99.58
2019-01-09T18:51:46.290Z,99.57
2019-01-09T18:54:15.274Z,99.40
2019-01-09T18:56:44.208Z,99.37
2019-01-09T18:59:13.489Z,99.30
2019-01-09T19:01:42.522Z,99.23
2019-01-09T19:04:11.568Z,99.12
2019-01-09T19:06:40.565Z,99.07
2019-01-09T19:09:10.781Z,98.96
2019-01-09T19:11:39.789Z,98.88
2019-01-09T19:14:08.764Z,98.80
2019-01-09T19:16:37.760Z,98.60
2019-01-09T19:19:06.731Z,98.38
2019-01-09T19:21:35.713Z,98.29
2019-01-09T19:24:04.878Z,98.12
2019-01-09T19:26:33.776Z,98.00
2019-01-09T19:29:02.778Z,97.90
2019-01-09T19:31:31.950Z,97.70
2019-01-09T19:34:00.876Z,97.41
2019-01-09T19:36:29.771Z,97.21
2019-01-09T19:38:58.732Z,97.15
2019-01-09T19:41:27.652Z,97.06
2019-01-09T19:43:56.545Z,97.10
2019-01-09T19:46:25.606Z,97.23
2019-01-09T19:48:54.571Z,97.19
2019-01-09T19:51:23.465Z,97.15
2019-01-09T19:53:52.475Z,97.00
2019-01-09T19:56:21.468Z,96.82
2019-01-09T19:58:50.449Z,96.85
2019-01-09T20:01:19.573Z,96.64
2019-01-09T20:03:48.616Z,96.42
2019-01-09T20:06:17.597Z,96.19
2019-01-09T20:08:46.564Z,96.03
2019-01-09T20:11:15.538Z,95.90
2019-01-09T20:13:44.495Z,95.77
2019-01-09T20:16:13.465Z,95.75
2019-01-09T20:18:42.427Z,95.68
2019-01-09T20:21:11.414Z,95.50
2019-01-09T20:23:40.394Z,95.48
2019-01-09T20:26:09.348Z,95.34
2019-01-09T20:28:38.398Z,95.38
2019-01-09T20:31:07.367Z,95.35
2019-01-09T20:33:36.355Z,95.45
2019-01-09T20:36:05.581Z,95.55
2019-01-09T20:38:34.551Z,95.67
2019-01-09T20:41:03.566Z,95.70
2019-01-09T20:43:32.565Z,95.75
2019-01-09T20:46:01.539Z,95.82
2019-01-09T20:48:30.523Z,95.81
2019-01-09T20:50:59.440Z,95.80
2019-01-09T20:53:28.455Z,95.67
2019-01-09T20:55:57.425Z,95.67
2019-01-09T20:58:26.397Z,95.60
2019-01-09T21:00:55.301Z,95.59
2019-01-09T21:03:24.284Z,95.61
2019-01-09T21:05:53.834Z,95.69
2019-01-09T21:08:23.073Z,95.75
2019-01-09T21:10:51.964Z,95.74
2019-01-09T21:13:20.926Z,95.80
2019-01-09T21:15:49.867Z,95.67
2019-01-09T21:18:18.799Z,95.59
2019-01-09T21:20:47.692Z,95.58
2019-01-09T21:23:16.580Z,95.62
2019-01-09T21:25:45.646Z,95.63
2019-01-09T21:28:14.599Z,95.65
2019-01-09T21:30:43.585Z,95.71
2019-01-09T21:33:12.501Z,95.55
2019-01-09T21:35:41.500Z,95.62
2019-01-09T21:38:10.723Z,95.60
2019-01-09T21:40:39.747Z,95.76
2019-01-09T21:43:08.708Z,95.79
2019-01-09T21:45:37.701Z,95.80
2019-01-09T21:48:07.024Z,95.77
2019-01-09T21:50:35.948Z,95.81
2019-01-09T21:53:05.429Z,96.07
2019-01-09T21:55:34.436Z,96.10
2019-01-09T21:58:03.260Z,96.11
2019-01-09T22:00:32.205Z,96.05
2019-01-09T22:03:01.156Z,96.12
2019-01-09T22:05:30.330Z,96.08
2019-01-09T22:07:59.303Z,96.20
2019-01-09T22:10:33.775Z,96.19
2019-01-09T22:13:02.941Z,96.11
2019-01-09T22:15:31.916Z,96.10
2019-01-09T22:18:00.874Z,96.15
2019-01-09T22:20:29.846Z,96.13
2019-01-09T22:22:58.807Z,96.12
2019-01-09T22:25:27.726Z,96.26
2019-01-09T22:27:56.697Z,96.26
2019-01-09T22:30:26.941Z,96.43
2019-01-09T22:32:55.910Z,96.33
2019-01-09T22:35:24.886Z,96.26
2019-01-09T22:37:53.950Z,96.22
2019-01-09T22:40:22.906Z,96.36
2019-01-09T22:42:51.953Z,96.18
2019-01-09T22:45:21.119Z,96.09
2019-01-09T22:47:50.093Z,96.00
2019-01-09T22:50:21.211Z,95.97
2019-01-09T22:52:50.179Z,95.92
2019-01-09T22:55:19.131Z,95.95
2019-01-09T22:57:48.207Z,95.89
2019-01-09T23:00:37.425Z,95.88
2019-01-09T23:03:07.078Z,95.79
2019-01-09T23:05:36.433Z,95.90
2019-01-09T23:08:05.733Z,95.99
2019-01-09T23:10:34.602Z,96.00
2019-01-09T23:13:03.681Z,96.11
2019-01-09T23:15:32.660Z,95.97
2019-01-09T23:18:01.581Z,95.99
2019-01-09T23:20:30.790Z,95.86
2019-01-09T23:22:59.856Z,95.81
2019-01-09T23:25:28.816Z,95.90
2019-01-09T23:27:57.720Z,95.68
2019-01-09T23:30:26.934Z,95.58
2019-01-09T23:32:56.454Z,95.57
2019-01-09T23:35:25.436Z,95.46
2019-01-09T23:37:54.410Z,95.35
2019-01-09T23:40:23.462Z,95.26
2019-01-09T23:42:52.516Z,95.13
2019-01-09T23:45:21.400Z,95.05
2019-01-09T23:47:50.258Z,95.10
2019-01-09T23:50:19.211Z,95.08
2019-01-09T23:52:48.219Z,94.98
2019-01-09T23:55:17.187Z,95.14
2019-01-09T23:57:46.245Z,95.09
